sensor_id;sensor_type;location;lat;lon;timestamp;P1;durP1;ratioP1;P2;durP2;ratioP2
85093;SDS011;75432;49.056;12.004;2024-02-21T00:01:16;6.37;;;2.57;;
85093;SDS011;75432;49.056;12.004;2024-02-21T00:03:43;7.53;;;2.93;;
85093;SDS011;75432;49.056;12.004;2024-02-21T00:06:10;9.50;;;2.77;;
85093;SDS011;75432;49.056;12.004;2024-02-21T00:08:36;11.57;;;3.00;;
85093;SDS011;75432;49.056;12.004;2024-02-21T00:11:03;5.60;;;2.53;;
85093;SDS011;75432;49.056;12.004;2024-02-21T00:13:30;9.80;;;2.80;;
85093;SDS011;75432;49.056;12.004;2024-02-21T00:15:57;10.47;;;3.20;;
85093;SDS011;75432;49.056;12.004;2024-02-21T00:18:23;6.80;;;2.73;;
85093;SDS011;75432;49.056;12.004;2024-02-21T00:20:55;6.83;;;2.30;;
85093;SDS011;75432;49.056;12.004;2024-02-21T00:23:22;9.70;;;3.13;;
85093;SDS011;75432;49.056;12.004;2024-02-21T00:25:49;5.47;;;2.47;;
85093;SDS011;75432;49.056;12.004;2024-02-21T00:28:16;9.80;;;2.83;;
85093;SDS011;75432;49.056;12.004;2024-02-21T00:30:42;10.00;;;2.97;;
85093;SDS011;75432;49.056;12.004;2024-02-21T00:33:09;8.90;;;2.87;;
85093;SDS011;75432;49.056;12.004;2024-02-21T00:35:35;4.03;;;2.30;;
85093;SDS011;75432;49.056;12.004;2024-02-21T00:38:02;9.20;;;2.80;;
85093;SDS011;75432;49.056;12.004;2024-02-21T00:40:29;6.87;;;2.27;;
85093;SDS011;75432;49.056;12.004;2024-02-21T00:42:56;7.97;;;2.60;;
85093;SDS011;75432;49.056;12.004;2024-02-21T00:45:23;9.37;;;2.50;;
85093;SDS011;75432;49.056;12.004;2024-02-21T00:47:49;10.13;;;2.60;;
85093;SDS011;75432;49.056;12.004;2024-02-21T00:50:16;5.10;;;2.23;;
85093;SDS011;75432;49.056;12.004;2024-02-21T00:52:43;3.37;;;2.57;;
85093;SDS011;75432;49.056;12.004;2024-02-21T00:55:09;8.53;;;2.30;;
85093;SDS011;75432;49.056;12.004;2024-02-21T00:57:37;10.20;;;2.80;;
85093;SDS011;75432;49.056;12.004;2024-02-21T01:00:03;6.90;;;2.17;;
85093;SDS011;75432;49.056;12.004;2024-02-21T01:02:30;7.53;;;2.50;;
85093;SDS011;75432;49.056;12.004;2024-02-21T01:05:00;5.87;;;2.27;;
85093;SDS011;75432;49.056;12.004;2024-02-21T01:07:28;4.63;;;2.43;;
85093;SDS011;75432;49.056;12.004;2024-02-21T01:09:55;9.07;;;2.53;;
85093;SDS011;75432;49.056;12.004;2024-02-21T01:12:22;10.27;;;2.50;;
85093;SDS011;75432;49.056;12.004;2024-02-21T01:14:48;7.83;;;2.47;;
85093;SDS011;75432;49.056;12.004;2024-02-21T01:17:15;5.50;;;2.17;;
85093;SDS011;75432;49.056;12.004;2024-02-21T01:19:42;8.13;;;2.43;;
85093;SDS011;75432;49.056;12.004;2024-02-21T01:22:08;7.60;;;2.70;;
85093;SDS011;75432;49.056;12.004;2024-02-21T01:24:35;6.47;;;2.50;;
85093;SDS011;75432;49.056;12.004;2024-02-21T01:27:01;9.70;;;3.13;;
85093;SDS011;75432;49.056;12.004;2024-02-21T01:29:28;7.87;;;2.50;;
85093;SDS011;75432;49.056;12.004;2024-02-21T01:31:54;4.93;;;2.37;;
85093;SDS011;75432;49.056;12.004;2024-02-21T01:34:21;5.83;;;2.53;;
85093;SDS011;75432;49.056;12.004;2024-02-21T01:36:48;7.87;;;2.67;;
85093;SDS011;75432;49.056;12.004;2024-02-21T01:39:14;8.23;;;2.80;;
85093;SDS011;75432;49.056;12.004;2024-02-21T01:41:41;7.37;;;2.53;;
85093;SDS011;75432;49.056;12.004;2024-02-21T01:44:07;7.67;;;2.70;;
85093;SDS011;75432;49.056;12.004;2024-02-21T01:46:34;10.57;;;3.03;;
85093;SDS011;75432;49.056;12.004;2024-02-21T01:49:01;7.60;;;2.43;;
85093;SDS011;75432;49.056;12.004;2024-02-21T01:51:28;6.70;;;2.60;;
85093;SDS011;75432;49.056;12.004;2024-02-21T01:53:55;5.40;;;2.20;;
85093;SDS011;75432;49.056;12.004;2024-02-21T01:56:23;5.97;;;2.60;;
85093;SDS011;75432;49.056;12.004;2024-02-21T01:58:50;12.67;;;3.30;;
85093;SDS011;75432;49.056;12.004;2024-02-21T02:01:18;8.83;;;3.53;;
85093;SDS011;75432;49.056;12.004;2024-02-21T02:03:48;8.00;;;2.93;;
85093;SDS011;75432;49.056;12.004;2024-02-21T02:06:16;12.43;;;3.57;;
85093;SDS011;75432;49.056;12.004;2024-02-21T02:08:42;9.10;;;3.27;;
85093;SDS011;75432;49.056;12.004;2024-02-21T02:11:09;8.60;;;3.53;;
85093;SDS011;75432;49.056;12.004;2024-02-21T02:13:36;9.73;;;3.40;;
85093;SDS011;75432;49.056;12.004;2024-02-21T02:16:03;12.13;;;3.80;;
85093;SDS011;75432;49.056;12.004;2024-02-21T02:18:30;12.10;;;3.97;;
85093;SDS011;75432;49.056;12.004;2024-02-21T02:20:57;10.50;;;4.27;;
85093;SDS011;75432;49.056;12.004;2024-02-21T02:23:30;9.20;;;4.30;;
85093;SDS011;75432;49.056;12.004;2024-02-21T02:26:00;9.47;;;3.97;;
85093;SDS011;75432;49.056;12.004;2024-02-21T02:28:29;11.50;;;4.37;;
85093;SDS011;75432;49.056;12.004;2024-02-21T02:30:56;8.90;;;3.63;;
85093;SDS011;75432;49.056;12.004;2024-02-21T02:33:23;15.17;;;4.33;;
85093;SDS011;75432;49.056;12.004;2024-02-21T02:35:50;11.53;;;3.70;;
85093;SDS011;75432;49.056;12.004;2024-02-21T02:38:16;10.07;;;4.10;;
85093;SDS011;75432;49.056;12.004;2024-02-21T02:40:43;10.03;;;4.73;;
85093;SDS011;75432;49.056;12.004;2024-02-21T02:43:09;10.00;;;4.10;;
85093;SDS011;75432;49.056;12.004;2024-02-21T02:45:36;10.97;;;4.33;;
85093;SDS011;75432;49.056;12.004;2024-02-21T02:48:03;10.83;;;4.37;;
85093;SDS011;75432;49.056;12.004;2024-02-21T02:50:30;12.87;;;4.40;;
85093;SDS011;75432;49.056;12.004;2024-02-21T02:52:56;10.43;;;5.00;;
85093;SDS011;75432;49.056;12.004;2024-02-21T02:55:23;11.57;;;4.37;;
85093;SDS011;75432;49.056;12.004;2024-02-21T02:57:49;11.97;;;4.00;;
85093;SDS011;75432;49.056;12.004;2024-02-21T03:00:16;9.20;;;4.60;;
85093;SDS011;75432;49.056;12.004;2024-02-21T03:02:43;10.80;;;4.60;;
85093;SDS011;75432;49.056;12.004;2024-02-21T03:07:41;15.17;;;4.77;;
85093;SDS011;75432;49.056;12.004;2024-02-21T03:10:09;10.43;;;4.33;;
85093;SDS011;75432;49.056;12.004;2024-02-21T03:12:36;10.20;;;4.30;;
85093;SDS011;75432;49.056;12.004;2024-02-21T03:15:03;12.70;;;4.60;;
85093;SDS011;75432;49.056;12.004;2024-02-21T03:17:31;8.10;;;4.70;;
85093;SDS011;75432;49.056;12.004;2024-02-21T03:19:58;12.37;;;3.97;;
85093;SDS011;75432;49.056;12.004;2024-02-21T03:22:26;12.13;;;4.27;;
85093;SDS011;75432;49.056;12.004;2024-02-21T03:24:52;12.67;;;4.13;;
85093;SDS011;75432;49.056;12.004;2024-02-21T03:27:19;10.20;;;4.17;;
85093;SDS011;75432;49.056;12.004;2024-02-21T03:29:45;9.07;;;4.20;;
85093;SDS011;75432;49.056;12.004;2024-02-21T03:32:12;9.27;;;3.90;;
85093;SDS011;75432;49.056;12.004;2024-02-21T03:34:38;9.10;;;3.80;;
85093;SDS011;75432;49.056;12.004;2024-02-21T03:37:05;7.67;;;3.80;;
85093;SDS011;75432;49.056;12.004;2024-02-21T03:39:31;9.40;;;3.87;;
85093;SDS011;75432;49.056;12.004;2024-02-21T03:42:01;10.07;;;3.87;;
85093;SDS011;75432;49.056;12.004;2024-02-21T03:44:31;12.20;;;4.30;;
85093;SDS011;75432;49.056;12.004;2024-02-21T03:47:01;11.67;;;3.87;;
85093;SDS011;75432;49.056;12.004;2024-02-21T03:49:28;5.67;;;3.17;;
85093;SDS011;75432;49.056;12.004;2024-02-21T03:51:55;8.30;;;3.43;;
85093;SDS011;75432;49.056;12.004;2024-02-21T03:54:22;11.43;;;4.23;;
85093;SDS011;75432;49.056;12.004;2024-02-21T03:56:48;8.80;;;3.77;;
85093;SDS011;75432;49.056;12.004;2024-02-21T03:59:15;12.17;;;3.53;;
85093;SDS011;75432;49.056;12.004;2024-02-21T04:01:42;9.77;;;3.80;;
85093;SDS011;75432;49.056;12.004;2024-02-21T04:04:09;9.97;;;3.90;;
85093;SDS011;75432;49.056;12.004;2024-02-21T04:06:36;9.07;;;3.50;;
85093;SDS011;75432;49.056;12.004;2024-02-21T04:09:02;10.63;;;3.70;;
85093;SDS011;75432;49.056;12.004;2024-02-21T04:11:29;6.97;;;3.03;;
85093;SDS011;75432;49.056;12.004;2024-02-21T04:13:56;10.93;;;3.63;;
85093;SDS011;75432;49.056;12.004;2024-02-21T04:16:23;8.97;;;3.20;;
85093;SDS011;75432;49.056;12.004;2024-02-21T04:18:49;10.27;;;3.33;;
85093;SDS011;75432;49.056;12.004;2024-02-21T04:21:16;12.60;;;4.00;;
85093;SDS011;75432;49.056;12.004;2024-02-21T04:23:43;11.63;;;3.83;;
85093;SDS011;75432;49.056;12.004;2024-02-21T04:26:09;11.23;;;3.63;;
85093;SDS011;75432;49.056;12.004;2024-02-21T04:28:36;12.37;;;3.73;;
85093;SDS011;75432;49.056;12.004;2024-02-21T04:31:03;11.03;;;3.60;;
85093;SDS011;75432;49.056;12.004;2024-02-21T04:33:29;6.57;;;3.40;;
85093;SDS011;75432;49.056;12.004;2024-02-21T04:35:56;8.30;;;3.20;;
85093;SDS011;75432;49.056;12.004;2024-02-21T04:38:24;7.77;;;3.20;;
85093;SDS011;75432;49.056;12.004;2024-02-21T04:40:51;9.67;;;3.57;;
85093;SDS011;75432;49.056;12.004;2024-02-21T04:43:18;9.20;;;3.17;;
85093;SDS011;75432;49.056;12.004;2024-02-21T04:45:44;10.60;;;3.10;;
85093;SDS011;75432;49.056;12.004;2024-02-21T04:48:10;9.63;;;3.07;;
85093;SDS011;75432;49.056;12.004;2024-02-21T04:50:37;5.70;;;2.90;;
85093;SDS011;75432;49.056;12.004;2024-02-21T04:53:04;9.23;;;3.00;;
85093;SDS011;75432;49.056;12.004;2024-02-21T04:55:30;9.47;;;2.90;;
85093;SDS011;75432;49.056;12.004;2024-02-21T04:57:57;7.90;;;2.63;;
85093;SDS011;75432;49.056;12.004;2024-02-21T05:00:25;8.47;;;2.87;;
85093;SDS011;75432;49.056;12.004;2024-02-21T05:02:52;5.17;;;2.57;;
85093;SDS011;75432;49.056;12.004;2024-02-21T05:05:18;5.87;;;3.07;;
85093;SDS011;75432;49.056;12.004;2024-02-21T05:07:45;6.10;;;2.43;;
85093;SDS011;75432;49.056;12.004;2024-02-21T05:10:12;9.57;;;2.93;;
85093;SDS011;75432;49.056;12.004;2024-02-21T05:12:39;10.83;;;3.53;;
85093;SDS011;75432;49.056;12.004;2024-02-21T05:15:06;8.73;;;3.07;;
85093;SDS011;75432;49.056;12.004;2024-02-21T05:17:32;5.17;;;2.63;;
85093;SDS011;75432;49.056;12.004;2024-02-21T05:19:59;8.20;;;2.77;;
85093;SDS011;75432;49.056;12.004;2024-02-21T05:22:26;5.37;;;2.67;;
85093;SDS011;75432;49.056;12.004;2024-02-21T05:24:52;11.57;;;2.97;;
85093;SDS011;75432;49.056;12.004;2024-02-21T05:27:19;4.70;;;2.40;;
85093;SDS011;75432;49.056;12.004;2024-02-21T05:29:45;8.93;;;2.67;;
85093;SDS011;75432;49.056;12.004;2024-02-21T05:32:12;6.53;;;2.70;;
85093;SDS011;75432;49.056;12.004;2024-02-21T05:34:39;6.23;;;2.80;;
85093;SDS011;75432;49.056;12.004;2024-02-21T05:37:06;9.80;;;3.00;;
85093;SDS011;75432;49.056;12.004;2024-02-21T05:39:32;9.13;;;3.10;;
85093;SDS011;75432;49.056;12.004;2024-02-21T05:41:59;4.00;;;2.63;;
85093;SDS011;75432;49.056;12.004;2024-02-21T05:44:25;5.00;;;2.47;;
85093;SDS011;75432;49.056;12.004;2024-02-21T05:46:53;8.97;;;2.27;;
85093;SDS011;75432;49.056;12.004;2024-02-21T05:49:19;9.00;;;2.73;;
85093;SDS011;75432;49.056;12.004;2024-02-21T05:51:46;4.63;;;2.40;;
85093;SDS011;75432;49.056;12.004;2024-02-21T05:54:13;8.00;;;2.90;;
85093;SDS011;75432;49.056;12.004;2024-02-21T05:56:43;4.93;;;2.50;;
85093;SDS011;75432;49.056;12.004;2024-02-21T05:59:10;6.77;;;2.60;;
85093;SDS011;75432;49.056;12.004;2024-02-21T06:01:37;11.23;;;3.23;;
85093;SDS011;75432;49.056;12.004;2024-02-21T06:04:03;7.10;;;2.63;;
85093;SDS011;75432;49.056;12.004;2024-02-21T06:06:30;7.40;;;2.70;;
85093;SDS011;75432;49.056;12.004;2024-02-21T06:08:57;10.77;;;2.93;;
85093;SDS011;75432;49.056;12.004;2024-02-21T06:11:25;5.43;;;2.50;;
85093;SDS011;75432;49.056;12.004;2024-02-21T06:13:51;7.57;;;2.30;;
85093;SDS011;75432;49.056;12.004;2024-02-21T06:16:18;10.60;;;3.10;;
85093;SDS011;75432;49.056;12.004;2024-02-21T06:18:45;9.20;;;2.57;;
85093;SDS011;75432;49.056;12.004;2024-02-21T06:21:11;8.37;;;2.50;;
85093;SDS011;75432;49.056;12.004;2024-02-21T06:23:38;6.43;;;2.23;;
85093;SDS011;75432;49.056;12.004;2024-02-21T06:26:05;8.03;;;2.60;;
85093;SDS011;75432;49.056;12.004;2024-02-21T06:28:31;6.63;;;2.37;;
85093;SDS011;75432;49.056;12.004;2024-02-21T06:30:58;7.10;;;3.10;;
85093;SDS011;75432;49.056;12.004;2024-02-21T06:33:24;4.50;;;2.70;;
85093;SDS011;75432;49.056;12.004;2024-02-21T06:35:51;8.80;;;2.90;;
85093;SDS011;75432;49.056;12.004;2024-02-21T06:38:21;4.33;;;2.63;;
85093;SDS011;75432;49.056;12.004;2024-02-21T06:40:48;4.10;;;2.30;;
85093;SDS011;75432;49.056;12.004;2024-02-21T06:43:17;5.40;;;2.63;;
85093;SDS011;75432;49.056;12.004;2024-02-21T06:45:47;5.07;;;2.50;;
85093;SDS011;75432;49.056;12.004;2024-02-21T06:48:17;8.83;;;2.60;;
85093;SDS011;75432;49.056;12.004;2024-02-21T06:50:45;5.43;;;2.60;;
85093;SDS011;75432;49.056;12.004;2024-02-21T06:53:11;8.00;;;2.53;;
85093;SDS011;75432;49.056;12.004;2024-02-21T06:55:38;5.37;;;2.33;;
85093;SDS011;75432;49.056;12.004;2024-02-21T06:58:05;7.53;;;2.70;;
85093;SDS011;75432;49.056;12.004;2024-02-21T07:00:34;6.80;;;2.37;;
85093;SDS011;75432;49.056;12.004;2024-02-21T07:03:01;6.57;;;2.43;;
85093;SDS011;75432;49.056;12.004;2024-02-21T07:05:27;7.20;;;2.90;;
85093;SDS011;75432;49.056;12.004;2024-02-21T07:07:54;8.37;;;2.97;;
85093;SDS011;75432;49.056;12.004;2024-02-21T07:10:20;6.50;;;3.10;;
85093;SDS011;75432;49.056;12.004;2024-02-21T07:12:47;6.87;;;2.43;;
85093;SDS011;75432;49.056;12.004;2024-02-21T07:15:14;7.43;;;2.93;;
85093;SDS011;75432;49.056;12.004;2024-02-21T07:17:41;7.13;;;2.50;;
85093;SDS011;75432;49.056;12.004;2024-02-21T07:20:08;7.53;;;2.87;;
85093;SDS011;75432;49.056;12.004;2024-02-21T07:22:35;11.87;;;2.93;;
85093;SDS011;75432;49.056;12.004;2024-02-21T07:25:01;8.03;;;2.93;;
85093;SDS011;75432;49.056;12.004;2024-02-21T07:27:31;10.10;;;2.93;;
85093;SDS011;75432;49.056;12.004;2024-02-21T07:29:59;9.27;;;2.83;;
85093;SDS011;75432;49.056;12.004;2024-02-21T07:32:26;7.03;;;2.77;;
85093;SDS011;75432;49.056;12.004;2024-02-21T07:34:52;6.63;;;2.70;;
85093;SDS011;75432;49.056;12.004;2024-02-21T07:37:19;8.63;;;3.20;;
85093;SDS011;75432;49.056;12.004;2024-02-21T07:39:46;7.73;;;2.97;;
85093;SDS011;75432;49.056;12.004;2024-02-21T07:42:12;13.30;;;2.77;;
85093;SDS011;75432;49.056;12.004;2024-02-21T07:44:38;8.67;;;3.13;;
85093;SDS011;75432;49.056;12.004;2024-02-21T07:47:05;5.00;;;2.77;;
85093;SDS011;75432;49.056;12.004;2024-02-21T07:49:33;4.37;;;2.47;;
85093;SDS011;75432;49.056;12.004;2024-02-21T07:52:07;7.60;;;2.93;;
85093;SDS011;75432;49.056;12.004;2024-02-21T07:54:34;5.17;;;2.37;;
85093;SDS011;75432;49.056;12.004;2024-02-21T07:57:00;6.43;;;2.53;;
85093;SDS011;75432;49.056;12.004;2024-02-21T07:59:27;5.90;;;2.50;;
85093;SDS011;75432;49.056;12.004;2024-02-21T08:01:57;4.40;;;2.27;;
85093;SDS011;75432;49.056;12.004;2024-02-21T08:04:24;6.77;;;2.70;;
85093;SDS011;75432;49.056;12.004;2024-02-21T08:06:54;7.43;;;3.10;;
85093;SDS011;75432;49.056;12.004;2024-02-21T08:09:22;6.53;;;3.17;;
85093;SDS011;75432;49.056;12.004;2024-02-21T08:11:49;6.97;;;2.60;;
85093;SDS011;75432;49.056;12.004;2024-02-21T08:14:16;9.75;;;3.22;;
85093;SDS011;75432;49.056;12.004;2024-02-21T08:16:46;6.10;;;2.65;;
85093;SDS011;75432;49.056;12.004;2024-02-21T08:19:13;13.35;;;2.90;;
85093;SDS011;75432;49.056;12.004;2024-02-21T08:21:40;6.67;;;2.67;;
85093;SDS011;75432;49.056;12.004;2024-02-21T08:24:06;8.18;;;2.53;;
85093;SDS011;75432;49.056;12.004;2024-02-21T08:26:33;6.00;;;2.77;;
85093;SDS011;75432;49.056;12.004;2024-02-21T08:28:59;7.07;;;2.58;;
85093;SDS011;75432;49.056;12.004;2024-02-21T08:31:27;11.25;;;2.63;;
85093;SDS011;75432;49.056;12.004;2024-02-21T08:34:00;7.32;;;2.97;;
85093;SDS011;75432;49.056;12.004;2024-02-21T08:36:31;9.27;;;2.63;;
85093;SDS011;75432;49.056;12.004;2024-02-21T08:38:59;8.38;;;2.35;;
85093;SDS011;75432;49.056;12.004;2024-02-21T08:41:26;7.38;;;2.60;;
85093;SDS011;75432;49.056;12.004;2024-02-21T08:44:13;7.60;;;2.58;;
85093;SDS011;75432;49.056;12.004;2024-02-21T08:46:39;8.07;;;2.60;;
85093;SDS011;75432;49.056;12.004;2024-02-21T08:49:06;5.45;;;2.70;;
85093;SDS011;75432;49.056;12.004;2024-02-21T08:51:33;6.43;;;2.25;;
85093;SDS011;75432;49.056;12.004;2024-02-21T08:54:00;5.32;;;1.90;;
85093;SDS011;75432;49.056;12.004;2024-02-21T08:56:27;8.75;;;2.75;;
85093;SDS011;75432;49.056;12.004;2024-02-21T08:58:56;8.18;;;2.20;;
85093;SDS011;75432;49.056;12.004;2024-02-21T09:01:24;7.28;;;2.00;;
85093;SDS011;75432;49.056;12.004;2024-02-21T09:03:50;5.07;;;2.30;;
85093;SDS011;75432;49.056;12.004;2024-02-21T09:06:20;7.80;;;2.03;;
85093;SDS011;75432;49.056;12.004;2024-02-21T09:08:47;8.20;;;2.28;;
85093;SDS011;75432;49.056;12.004;2024-02-21T09:11:13;4.45;;;2.28;;
85093;SDS011;75432;49.056;12.004;2024-02-21T09:13:40;6.50;;;1.88;;
85093;SDS011;75432;49.056;12.004;2024-02-21T09:16:07;9.57;;;2.22;;
85093;SDS011;75432;49.056;12.004;2024-02-21T09:18:35;6.90;;;2.13;;
85093;SDS011;75432;49.056;12.004;2024-02-21T09:21:01;2.97;;;2.00;;
85093;SDS011;75432;49.056;12.004;2024-02-21T09:23:28;5.47;;;2.20;;
85093;SDS011;75432;49.056;12.004;2024-02-21T09:25:54;8.55;;;1.98;;
85093;SDS011;75432;49.056;12.004;2024-02-21T09:28:21;6.53;;;2.10;;
85093;SDS011;75432;49.056;12.004;2024-02-21T09:30:49;5.43;;;2.40;;
85093;SDS011;75432;49.056;12.004;2024-02-21T09:33:15;7.88;;;1.88;;
85093;SDS011;75432;49.056;12.004;2024-02-21T09:35:57;5.53;;;2.33;;
85093;SDS011;75432;49.056;12.004;2024-02-21T09:38:23;2.50;;;1.85;;
85093;SDS011;75432;49.056;12.004;2024-02-21T09:40:58;4.20;;;1.77;;
85093;SDS011;75432;49.056;12.004;2024-02-21T09:43:27;4.43;;;1.67;;
85093;SDS011;75432;49.056;12.004;2024-02-21T09:45:55;5.05;;;1.95;;
85093;SDS011;75432;49.056;12.004;2024-02-21T09:48:30;4.07;;;1.85;;
85093;SDS011;75432;49.056;12.004;2024-02-21T09:51:08;7.18;;;1.92;;
85093;SDS011;75432;49.056;12.004;2024-02-21T09:53:37;3.85;;;1.83;;
85093;SDS011;75432;49.056;12.004;2024-02-21T09:56:05;4.00;;;1.70;;
85093;SDS011;75432;49.056;12.004;2024-02-21T09:58:36;3.42;;;1.63;;
85093;SDS011;75432;49.056;12.004;2024-02-21T10:01:03;7.05;;;2.00;;
85093;SDS011;75432;49.056;12.004;2024-02-21T10:03:46;3.88;;;1.40;;
85093;SDS011;75432;49.056;12.004;2024-02-21T10:06:13;4.68;;;1.83;;
85093;SDS011;75432;49.056;12.004;2024-02-21T10:08:39;5.28;;;1.90;;
85093;SDS011;75432;49.056;12.004;2024-02-21T10:11:06;4.63;;;1.77;;
85093;SDS011;75432;49.056;12.004;2024-02-21T10:13:35;4.30;;;1.48;;
85093;SDS011;75432;49.056;12.004;2024-02-21T10:16:02;4.93;;;1.80;;
85093;SDS011;75432;49.056;12.004;2024-02-21T10:18:33;4.93;;;1.80;;
85093;SDS011;75432;49.056;12.004;2024-02-21T10:21:01;4.00;;;1.63;;
85093;SDS011;75432;49.056;12.004;2024-02-21T10:23:28;6.70;;;1.80;;
85093;SDS011;75432;49.056;12.004;2024-02-21T10:26:04;6.13;;;2.17;;
85093;SDS011;75432;49.056;12.004;2024-02-21T10:28:32;4.80;;;1.70;;
85093;SDS011;75432;49.056;12.004;2024-02-21T10:30:59;6.28;;;2.10;;
85093;SDS011;75432;49.056;12.004;2024-02-21T10:33:25;3.55;;;1.90;;
85093;SDS011;75432;49.056;12.004;2024-02-21T10:35:54;6.55;;;2.13;;
85093;SDS011;75432;49.056;12.004;2024-02-21T10:38:20;6.25;;;1.80;;
85093;SDS011;75432;49.056;12.004;2024-02-21T10:40:47;4.95;;;1.80;;
85093;SDS011;75432;49.056;12.004;2024-02-21T10:43:15;7.85;;;2.15;;
85093;SDS011;75432;49.056;12.004;2024-02-21T10:45:45;5.20;;;1.80;;
85093;SDS011;75432;49.056;12.004;2024-02-21T10:48:14;6.30;;;1.80;;
85093;SDS011;75432;49.056;12.004;2024-02-21T10:56:13;3.22;;;1.45;;
85093;SDS011;75432;49.056;12.004;2024-02-21T10:58:48;3.95;;;1.70;;
85093;SDS011;75432;49.056;12.004;2024-02-21T11:01:15;5.03;;;1.83;;
85093;SDS011;75432;49.056;12.004;2024-02-21T11:03:45;3.17;;;1.20;;
85093;SDS011;75432;49.056;12.004;2024-02-21T11:06:13;3.05;;;1.02;;
85093;SDS011;75432;49.056;12.004;2024-02-21T11:08:41;2.20;;;1.30;;
85093;SDS011;75432;49.056;12.004;2024-02-21T11:11:08;2.92;;;1.38;;
85093;SDS011;75432;49.056;12.004;2024-02-21T11:13:45;2.72;;;1.15;;
85093;SDS011;75432;49.056;12.004;2024-02-21T11:16:21;5.97;;;1.55;;
85093;SDS011;75432;49.056;12.004;2024-02-21T11:18:48;6.43;;;1.65;;
85093;SDS011;75432;49.056;12.004;2024-02-21T11:21:15;2.92;;;1.40;;
85093;SDS011;75432;49.056;12.004;2024-02-21T11:23:42;1.52;;;1.20;;
85093;SDS011;75432;49.056;12.004;2024-02-21T11:26:09;6.25;;;1.60;;
85093;SDS011;75432;49.056;12.004;2024-02-21T11:28:36;2.72;;;1.00;;
85093;SDS011;75432;49.056;12.004;2024-02-21T11:31:07;5.03;;;1.40;;
85093;SDS011;75432;49.056;12.004;2024-02-21T11:33:35;5.10;;;1.40;;
85093;SDS011;75432;49.056;12.004;2024-02-21T11:36:06;4.40;;;1.50;;
85093;SDS011;75432;49.056;12.004;2024-02-21T11:38:32;4.70;;;1.63;;
85093;SDS011;75432;49.056;12.004;2024-02-21T11:40:59;4.07;;;1.50;;
85093;SDS011;75432;49.056;12.004;2024-02-21T11:43:25;3.35;;;1.58;;
85093;SDS011;75432;49.056;12.004;2024-02-21T11:46:01;4.82;;;1.65;;
85093;SDS011;75432;49.056;12.004;2024-02-21T11:48:29;3.67;;;1.30;;
85093;SDS011;75432;49.056;12.004;2024-02-21T11:50:57;3.47;;;1.60;;
85093;SDS011;75432;49.056;12.004;2024-02-21T11:53:26;3.88;;;1.55;;
85093;SDS011;75432;49.056;12.004;2024-02-21T11:55:59;3.00;;;1.27;;
85093;SDS011;75432;49.056;12.004;2024-02-21T11:58:26;4.85;;;1.30;;
85093;SDS011;75432;49.056;12.004;2024-02-21T12:00:53;3.50;;;1.48;;
85093;SDS011;75432;49.056;12.004;2024-02-21T12:03:19;3.63;;;1.40;;
85093;SDS011;75432;49.056;12.004;2024-02-21T12:05:46;3.08;;;1.63;;
85093;SDS011;75432;49.056;12.004;2024-02-21T12:08:13;4.53;;;1.85;;
85093;SDS011;75432;49.056;12.004;2024-02-21T12:10:41;5.15;;;1.70;;
85093;SDS011;75432;49.056;12.004;2024-02-21T12:13:08;3.70;;;1.33;;
85093;SDS011;75432;49.056;12.004;2024-02-21T12:15:35;5.45;;;1.55;;
85093;SDS011;75432;49.056;12.004;2024-02-21T12:18:02;4.55;;;1.70;;
85093;SDS011;75432;49.056;12.004;2024-02-21T12:20:28;3.58;;;1.52;;
85093;SDS011;75432;49.056;12.004;2024-02-21T12:23:01;3.40;;;1.35;;
85093;SDS011;75432;49.056;12.004;2024-02-21T12:25:28;2.20;;;1.17;;
85093;SDS011;75432;49.056;12.004;2024-02-21T12:27:55;2.67;;;1.20;;
85093;SDS011;75432;49.056;12.004;2024-02-21T12:30:22;6.55;;;1.42;;
85093;SDS011;75432;49.056;12.004;2024-02-21T12:32:49;3.45;;;1.60;;
85093;SDS011;75432;49.056;12.004;2024-02-21T12:35:15;3.55;;;1.63;;
85093;SDS011;75432;49.056;12.004;2024-02-21T12:37:42;5.90;;;1.65;;
85093;SDS011;75432;49.056;12.004;2024-02-21T12:40:09;2.58;;;1.33;;
85093;SDS011;75432;49.056;12.004;2024-02-21T12:42:40;6.35;;;1.58;;
85093;SDS011;75432;49.056;12.004;2024-02-21T12:45:07;3.33;;;1.20;;
85093;SDS011;75432;49.056;12.004;2024-02-21T12:47:34;2.60;;;1.10;;
85093;SDS011;75432;49.056;12.004;2024-02-21T12:50:01;4.07;;;1.60;;
85093;SDS011;75432;49.056;12.004;2024-02-21T12:52:29;3.97;;;1.40;;
85093;SDS011;75432;49.056;12.004;2024-02-21T12:54:57;3.75;;;1.60;;
85093;SDS011;75432;49.056;12.004;2024-02-21T12:57:25;3.22;;;1.52;;
85093;SDS011;75432;49.056;12.004;2024-02-21T12:59:53;2.50;;;1.50;;
85093;SDS011;75432;49.056;12.004;2024-02-21T13:02:20;3.72;;;1.55;;
85093;SDS011;75432;49.056;12.004;2024-02-21T13:04:47;3.42;;;1.40;;
85093;SDS011;75432;49.056;12.004;2024-02-21T13:07:13;4.25;;;1.40;;
85093;SDS011;75432;49.056;12.004;2024-02-21T13:09:40;4.63;;;1.35;;
85093;SDS011;75432;49.056;12.004;2024-02-21T13:12:06;6.75;;;1.80;;
85093;SDS011;75432;49.056;12.004;2024-02-21T13:14:33;1.98;;;1.23;;
85093;SDS011;75432;49.056;12.004;2024-02-21T13:17:01;4.38;;;1.33;;
85093;SDS011;75432;49.056;12.004;2024-02-21T13:19:28;3.47;;;1.40;;
85093;SDS011;75432;49.056;12.004;2024-02-21T13:21:54;4.18;;;1.30;;
85093;SDS011;75432;49.056;12.004;2024-02-21T13:24:21;3.95;;;1.35;;
85093;SDS011;75432;49.056;12.004;2024-02-21T13:26:47;1.45;;;1.20;;
85093;SDS011;75432;49.056;12.004;2024-02-21T13:29:14;2.55;;;1.35;;
85093;SDS011;75432;49.056;12.004;2024-02-21T13:31:44;5.10;;;1.20;;
85093;SDS011;75432;49.056;12.004;2024-02-21T13:34:10;1.77;;;1.10;;
85093;SDS011;75432;49.056;12.004;2024-02-21T13:36:38;4.25;;;1.48;;
85093;SDS011;75432;49.056;12.004;2024-02-21T13:39:04;3.28;;;1.27;;
85093;SDS011;75432;49.056;12.004;2024-02-21T13:41:31;1.83;;;0.90;;
85093;SDS011;75432;49.056;12.004;2024-02-21T13:43:59;2.35;;;1.00;;
85093;SDS011;75432;49.056;12.004;2024-02-21T13:46:26;2.65;;;1.23;;
85093;SDS011;75432;49.056;12.004;2024-02-21T13:48:54;1.63;;;0.85;;
85093;SDS011;75432;49.056;12.004;2024-02-21T13:51:31;5.38;;;1.40;;
85093;SDS011;75432;49.056;12.004;2024-02-21T13:53:58;2.10;;;1.08;;
85093;SDS011;75432;49.056;12.004;2024-02-21T13:56:25;1.75;;;1.13;;
85093;SDS011;75432;49.056;12.004;2024-02-21T13:58:51;2.90;;;1.10;;
85093;SDS011;75432;49.056;12.004;2024-02-21T14:01:18;2.33;;;1.30;;
85093;SDS011;75432;49.056;12.004;2024-02-21T14:03:45;2.38;;;1.20;;
85093;SDS011;75432;49.056;12.004;2024-02-21T14:06:11;4.10;;;1.05;;
85093;SDS011;75432;49.056;12.004;2024-02-21T14:08:38;3.17;;;1.30;;
85093;SDS011;75432;49.056;12.004;2024-02-21T14:11:06;1.35;;;1.00;;
85093;SDS011;75432;49.056;12.004;2024-02-21T14:13:33;4.47;;;1.20;;
85093;SDS011;75432;49.056;12.004;2024-02-21T14:16:00;3.38;;;1.10;;
85093;SDS011;75432;49.056;12.004;2024-02-21T14:18:26;2.45;;;1.30;;
85093;SDS011;75432;49.056;12.004;2024-02-21T14:20:53;3.05;;;1.30;;
85093;SDS011;75432;49.056;12.004;2024-02-21T14:23:20;1.75;;;1.15;;
85093;SDS011;75432;49.056;12.004;2024-02-21T14:25:47;1.65;;;1.05;;
85093;SDS011;75432;49.056;12.004;2024-02-21T14:28:14;2.22;;;1.20;;
85093;SDS011;75432;49.056;12.004;2024-02-21T14:30:43;3.70;;;1.42;;
85093;SDS011;75432;49.056;12.004;2024-02-21T14:33:09;2.50;;;1.10;;
85093;SDS011;75432;49.056;12.004;2024-02-21T14:35:36;3.22;;;1.05;;
85093;SDS011;75432;49.056;12.004;2024-02-21T14:38:02;4.63;;;1.38;;
85093;SDS011;75432;49.056;12.004;2024-02-21T14:40:29;2.38;;;1.20;;
85093;SDS011;75432;49.056;12.004;2024-02-21T14:42:56;2.25;;;1.00;;